createdAt,value
2018-04-16T00:00:21.374Z,18.80
2018-04-16T00:05:23.851Z,18.17
2018-04-16T00:10:26.347Z,18.40
2018-04-16T00:15:28.854Z,17.40
2018-04-16T00:20:31.350Z,16.67
2018-04-16T00:25:33.801Z,19.90
2018-04-16T00:30:37.078Z,21.80
2018-04-16T00:35:45.705Z,21.83
2018-04-16T00:40:53.736Z,21.07
2018-04-16T00:46:01.719Z,22.03
2018-04-16T00:51:10.447Z,21.90
2018-04-16T00:56:18.957Z,21.97
2018-04-16T01:01:27.168Z,21.90
2018-04-16T01:06:35.305Z,23.80
2018-04-16T01:11:43.779Z,22.80
2018-04-16T01:16:51.930Z,20.67
2018-04-16T01:21:59.980Z,20.73
2018-04-16T01:27:08.460Z,18.90
2018-04-16T01:32:16.668Z,19.53
2018-04-16T01:37:24.768Z,21.60
2018-04-16T01:42:32.848Z,22.93
2018-04-16T01:47:41.046Z,18.37
2018-04-16T01:52:49.429Z,19.60
2018-04-16T01:57:58.496Z,21.70
2018-04-16T02:03:06.905Z,20.57
2018-04-16T02:08:15.644Z,19.37
2018-04-16T02:13:23.652Z,19.67
2018-04-16T02:18:31.790Z,19.23
2018-04-16T02:23:39.813Z,20.17
2018-04-16T02:28:48.012Z,23.00
2018-04-16T02:33:56.271Z,21.37
2018-04-16T02:39:04.550Z,20.13
2018-04-16T02:44:12.739Z,21.67
2018-04-16T02:49:20.758Z,20.07
2018-04-16T02:54:28.794Z,21.87
2018-04-16T02:59:36.803Z,21.33
2018-04-16T03:04:45.029Z,19.73
2018-04-16T03:09:52.980Z,20.80
2018-04-16T03:15:01.011Z,20.03
2018-04-16T03:20:09.181Z,20.43
2018-04-16T03:25:17.159Z,20.70
2018-04-16T03:30:25.295Z,21.40
2018-04-16T03:35:33.469Z,20.40
2018-04-16T03:40:41.825Z,20.67
2018-04-16T03:46:03.389Z,22.07
2018-04-16T03:51:21.569Z,20.00
2018-04-16T03:56:25.080Z,20.60
2018-04-16T04:01:27.575Z,21.73
2018-04-16T04:06:30.074Z,22.33
2018-04-16T04:11:32.565Z,24.70
2018-04-16T04:16:37.863Z,22.97
2018-04-16T04:21:44.097Z,23.40
2018-04-16T04:26:58.203Z,23.47
2018-04-16T04:32:00.976Z,23.67
2018-04-16T04:37:03.464Z,24.77
2018-04-16T04:42:12.935Z,24.97
2018-04-16T04:47:15.967Z,24.53
2018-04-16T04:52:18.462Z,24.47
2018-04-16T04:57:20.985Z,24.23
2018-04-16T05:02:23.462Z,25.90
2018-04-16T05:07:25.971Z,26.83
2018-04-16T05:12:28.455Z,26.50
2018-04-16T05:17:31.952Z,25.63
2018-04-16T05:22:35.280Z,27.23
2018-04-16T05:27:39.125Z,25.27
2018-04-16T05:32:41.648Z,26.30
2018-04-16T05:37:45.500Z,27.37
2018-04-16T05:42:48.041Z,28.20
2018-04-16T05:47:50.514Z,28.53
2018-04-16T05:52:52.982Z,27.23
2018-04-16T05:57:55.620Z,26.67
2018-04-16T06:02:58.140Z,26.83
2018-04-16T06:08:00.616Z,27.23
2018-04-16T06:13:03.139Z,24.60
2018-04-16T06:18:05.728Z,25.57
2018-04-16T06:23:08.425Z,26.83
2018-04-16T06:28:11.194Z,25.47
2018-04-16T06:33:13.848Z,23.10
2018-04-16T06:38:16.384Z,25.30
2018-04-16T06:43:23.427Z,24.97
2018-04-16T06:48:26.005Z,24.30
2018-04-16T06:53:28.847Z,27.60
2018-04-16T06:58:31.476Z,26.90
2018-04-16T07:03:34.930Z,27.23
2018-04-16T07:08:37.687Z,27.40
2018-04-16T07:13:40.466Z,24.63
2018-04-16T07:18:42.963Z,23.73
2018-04-16T07:23:45.549Z,22.53
2018-04-16T07:28:48.110Z,25.43
2018-04-16T07:33:50.671Z,27.73
2018-04-16T07:38:53.167Z,23.23
2018-04-16T07:43:55.642Z,25.63
2018-04-16T07:48:58.211Z,26.47
2018-04-16T07:54:00.706Z,26.40
2018-04-16T07:59:03.220Z,26.60
2018-04-16T08:04:05.802Z,26.40
2018-04-16T08:09:08.395Z,26.03
2018-04-16T08:14:10.909Z,25.23
2018-04-16T08:19:13.446Z,25.00
2018-04-16T08:24:15.931Z,26.17
2018-04-16T08:29:18.419Z,24.10
2018-04-16T08:34:20.924Z,23.07
2018-04-16T08:39:23.413Z,23.33
2018-04-16T08:44:25.915Z,26.63
2018-04-16T08:49:28.403Z,25.57
2018-04-16T08:54:32.364Z,25.73
2018-04-16T08:59:34.895Z,25.93
2018-04-16T09:04:37.406Z,24.67
2018-04-16T09:09:39.954Z,23.60
2018-04-16T09:14:43.435Z,26.67
2018-04-16T09:19:45.901Z,26.07
2018-04-16T09:24:48.566Z,26.93
2018-04-16T09:29:51.109Z,27.97
2018-04-16T09:34:53.611Z,26.70
2018-04-16T09:39:56.156Z,27.53
2018-04-16T09:44:58.667Z,25.67
2018-04-16T09:50:01.183Z,27.03
2018-04-16T09:55:03.652Z,27.93
2018-04-16T10:00:06.360Z,25.67
2018-04-16T10:05:09.406Z,26.57
2018-04-16T10:10:11.976Z,27.00
2018-04-16T10:15:14.454Z,27.13
2018-04-16T10:20:16.951Z,24.03
2018-04-16T10:25:19.479Z,23.63
2018-04-16T10:30:21.942Z,23.93
2018-04-16T10:35:24.442Z,22.57
2018-04-16T10:40:27.017Z,22.73
2018-04-16T10:45:29.508Z,21.43
2018-04-16T10:50:32.012Z,21.13
2018-04-16T10:55:35.905Z,19.07
2018-04-16T11:00:38.489Z,20.30
2018-04-16T11:05:41.003Z,19.67
2018-04-16T11:10:45.065Z,19.33
2018-04-16T11:15:47.537Z,20.07
2018-04-16T11:20:50.025Z,22.20
2018-04-16T11:25:52.493Z,18.37
2018-04-16T11:30:54.986Z,19.73
2018-04-16T11:35:57.467Z,19.27
2018-04-16T11:40:59.953Z,21.37
2018-04-16T11:46:02.437Z,21.00
2018-04-16T11:51:05.007Z,21.97
2018-04-16T11:56:07.547Z,22.13
2018-04-16T12:01:10.105Z,23.33
2018-04-16T12:06:12.666Z,22.73
2018-04-16T12:11:15.147Z,21.33
2018-04-16T12:16:17.646Z,23.90
2018-04-16T12:21:20.180Z,23.00
2018-04-16T12:26:22.634Z,22.27
2018-04-16T12:31:25.128Z,23.77
2018-04-16T12:36:27.590Z,24.43
2018-04-16T12:41:30.137Z,23.73
2018-04-16T12:46:32.608Z,24.73
2018-04-16T12:51:35.137Z,24.03
2018-04-16T12:56:37.705Z,25.23
2018-04-16T13:01:40.247Z,23.90
2018-04-16T13:06:42.798Z,26.50
2018-04-16T13:11:45.297Z,26.27
2018-04-16T13:16:47.796Z,26.17
2018-04-16T13:21:50.255Z,29.10
2018-04-16T13:26:52.725Z,29.37
2018-04-16T13:31:55.229Z,28.03
2018-04-16T13:36:57.712Z,29.60
2018-04-16T13:42:00.199Z,30.63
2018-04-16T13:47:02.709Z,31.40
2018-04-16T13:52:08.148Z,28.77
2018-04-16T13:57:10.645Z,32.37
2018-04-16T14:02:13.156Z,30.83
2018-04-16T14:07:15.652Z,28.70
2018-04-16T14:12:18.122Z,28.83
2018-04-16T14:17:20.706Z,29.63
2018-04-16T14:22:24.318Z,31.23
2018-04-16T14:27:27.785Z,32.17
2018-04-16T14:32:30.265Z,33.83
2018-04-16T14:37:32.724Z,33.10
2018-04-16T14:42:36.087Z,31.77
2018-04-16T14:47:38.606Z,30.93
2018-04-16T14:52:41.093Z,36.60
2018-04-16T14:57:43.551Z,36.60
2018-04-16T15:02:46.034Z,37.60
2018-04-16T15:07:48.507Z,37.23
2018-04-16T15:12:50.989Z,32.87
2018-04-16T15:17:53.453Z,33.97
2018-04-16T15:22:56.902Z,35.03
2018-04-16T15:27:59.439Z,37.43
2018-04-16T15:33:01.915Z,36.00
2018-04-16T15:38:04.562Z,35.77
2018-04-16T15:43:07.168Z,35.80
2018-04-16T15:48:09.707Z,39.50
2018-04-16T15:53:12.257Z,41.23
2018-04-16T15:58:14.723Z,39.00
2018-04-16T16:03:17.228Z,40.13
2018-04-16T16:08:19.731Z,42.87
2018-04-16T16:13:22.236Z,39.17
2018-04-16T16:18:24.750Z,38.60
2018-04-16T16:23:27.306Z,39.27
2018-04-16T16:28:29.800Z,42.63
2018-04-16T16:33:32.408Z,41.50
2018-04-16T16:38:34.941Z,40.67
2018-04-16T16:43:37.595Z,42.23
2018-04-16T16:48:40.136Z,40.93
2018-04-16T16:53:42.647Z,41.90
2018-04-16T16:58:45.235Z,42.47
2018-04-16T17:03:47.794Z,36.43
2018-04-16T17:08:50.304Z,39.33
2018-04-16T17:13:52.780Z,39.57
2018-04-16T17:18:55.231Z,39.43
2018-04-16T17:23:59.254Z,39.80
2018-04-16T17:29:01.740Z,40.83
2018-04-16T17:34:04.872Z,43.13
2018-04-16T17:39:07.511Z,43.53
2018-04-16T17:44:11.865Z,44.00
2018-04-16T17:49:14.668Z,41.43
2018-04-16T17:54:17.167Z,47.30
2018-04-16T17:59:19.639Z,47.53
2018-04-16T18:04:22.201Z,42.93
2018-04-16T18:09:24.856Z,49.20
2018-04-16T18:14:27.324Z,43.67
2018-04-16T18:19:29.817Z,49.03
2018-04-16T18:24:32.296Z,42.83
2018-04-16T18:29:35.235Z,42.37
2018-04-16T18:34:38.483Z,40.37
2018-04-16T18:39:41.322Z,39.70
2018-04-16T18:44:44.206Z,36.03
2018-04-16T18:49:46.771Z,45.77
2018-04-16T18:54:49.597Z,41.13
2018-04-16T18:59:52.093Z,44.03
2018-04-16T19:04:54.592Z,42.93
2018-04-16T19:09:58.244Z,41.17
2018-04-16T19:15:01.399Z,38.67
2018-04-16T19:20:04.705Z,36.80
2018-04-16T19:25:07.455Z,34.23
2018-04-16T19:30:10.017Z,33.27
2018-04-16T19:35:12.613Z,33.87
2018-04-16T19:40:15.141Z,34.70
2018-04-16T19:45:18.073Z,34.60
2018-04-16T19:50:20.553Z,34.63
2018-04-16T19:55:23.066Z,37.30
2018-04-16T20:00:25.598Z,33.97
2018-04-16T20:05:28.777Z,36.40
2018-04-16T20:10:32.377Z,34.80
2018-04-16T20:15:35.361Z,36.40
2018-04-16T20:20:39.175Z,35.93
2018-04-16T20:25:45.653Z,33.50
2018-04-16T20:30:48.479Z,36.17
2018-04-16T20:35:51.450Z,33.63
2018-04-16T20:40:54.071Z,35.00
2018-04-16T20:45:56.578Z,33.43
2018-04-16T20:50:59.110Z,32.00
2018-04-16T20:56:01.604Z,32.33
2018-04-16T21:01:04.126Z,34.13
2018-04-16T21:06:06.927Z,34.97
2018-04-16T21:11:09.678Z,35.90
2018-04-16T21:16:12.343Z,35.40
2018-04-16T21:21:15.073Z,31.83
2018-04-16T21:26:17.668Z,37.53
2018-04-16T21:31:20.192Z,39.70
2018-04-16T21:36:22.693Z,41.27
2018-04-16T21:41:25.165Z,39.63
2018-04-16T21:46:27.637Z,38.13
2018-04-16T21:51:30.123Z,44.00
2018-04-16T21:56:32.621Z,48.63
2018-04-16T22:01:35.814Z,50.63
2018-04-16T22:06:38.548Z,47.27
2018-04-16T22:11:41.216Z,49.20
2018-04-16T22:16:43.770Z,50.73
2018-04-16T22:21:46.264Z,53.33
2018-04-16T22:26:48.743Z,52.63
2018-04-16T22:31:51.315Z,50.73
2018-04-16T22:36:53.789Z,48.03
2018-04-16T22:41:56.270Z,46.40
2018-04-16T22:46:59.616Z,46.47
2018-04-16T22:52:02.077Z,46.73
2018-04-16T22:57:04.640Z,47.27
2018-04-16T23:02:07.213Z,44.90
2018-04-16T23:07:10.433Z,48.73
2018-04-16T23:12:13.001Z,50.47
2018-04-16T23:17:15.495Z,43.30
2018-04-16T23:22:18.014Z,47.87
2018-04-16T23:27:20.504Z,48.07
2018-04-16T23:32:23.288Z,47.03
2018-04-16T23:37:25.788Z,47.50
2018-04-16T23:42:28.254Z,48.83
2018-04-16T23:47:30.759Z,45.07
2018-04-16T23:52:33.474Z,47.27
2018-04-16T23:57:36.021Z,46.40
